createdAt,value
2023-05-19T00:02:21.075Z,16.23
2023-05-19T00:04:48.526Z,16.25
2023-05-19T00:07:19.332Z,16.27
2023-05-19T00:09:46.465Z,16.25
2023-05-19T00:12:13.869Z,16.23
2023-05-19T00:14:41.062Z,16.25
2023-05-19T00:17:08.303Z,16.26
2023-05-19T00:19:35.105Z,16.29
2023-05-19T00:22:01.845Z,16.33
2023-05-19T00:24:28.969Z,16.35
2023-05-19T00:26:55.925Z,16.37
2023-05-19T00:29:22.746Z,16.36
2023-05-19T00:31:49.809Z,16.33
2023-05-19T00:34:16.669Z,16.35
2023-05-19T00:36:43.639Z,16.36
2023-05-19T00:39:13.896Z,16.34
2023-05-19T00:41:40.739Z,16.35
2023-05-19T00:44:07.758Z,16.33
2023-05-19T00:46:34.587Z,16.33
2023-05-19T00:49:01.507Z,16.33
2023-05-19T00:51:29.682Z,16.34
2023-05-19T00:53:57.829Z,16.30
2023-05-19T00:56:26.703Z,16.20
2023-05-19T00:58:54.842Z,16.25
2023-05-19T01:01:22.813Z,16.27
2023-05-19T01:03:49.965Z,16.18
2023-05-19T01:06:19.299Z,16.06
2023-05-19T01:08:46.575Z,15.99
2023-05-19T01:11:13.535Z,15.96
2023-05-19T01:13:42.103Z,16.02
2023-05-19T01:16:12.765Z,16.03
2023-05-19T01:19:01.768Z,16.00
2023-05-19T01:21:44.514Z,16.02
2023-05-19T01:24:39.503Z,16.02
2023-05-19T01:27:42.047Z,16.00
2023-05-19T01:30:30.830Z,16.02
2023-05-19T01:33:02.119Z,16.02
2023-05-19T01:35:30.879Z,15.95
2023-05-19T01:38:00.799Z,16.00
2023-05-19T01:40:29.116Z,15.98
2023-05-19T01:42:59.108Z,15.95
2023-05-19T01:45:28.593Z,15.97
2023-05-19T01:47:58.298Z,15.99
2023-05-19T01:50:25.475Z,16.04
2023-05-19T01:52:52.740Z,16.09
2023-05-19T01:55:21.301Z,16.08
2023-05-19T01:58:09.908Z,16.06
2023-05-19T02:00:54.254Z,16.05
2023-05-19T02:03:38.925Z,16.05
2023-05-19T02:06:31.214Z,16.03
2023-05-19T02:09:04.381Z,16.03
2023-05-19T02:11:38.765Z,16.04
2023-05-19T02:14:30.670Z,16.04
2023-05-19T02:16:59.346Z,16.04
2023-05-19T02:19:34.574Z,16.02
2023-05-19T02:22:01.465Z,16.04
2023-05-19T02:24:28.216Z,16.07
2023-05-19T02:26:55.005Z,16.08
2023-05-19T02:29:21.993Z,16.07
2023-05-19T02:31:50.637Z,16.06
2023-05-19T02:34:19.129Z,15.99
2023-05-19T02:36:45.903Z,15.98
2023-05-19T02:39:12.983Z,15.93
2023-05-19T02:41:39.842Z,15.93
2023-05-19T02:44:07.596Z,15.94
2023-05-19T02:46:34.750Z,15.92
2023-05-19T02:49:01.530Z,15.85
2023-05-19T02:51:28.312Z,15.86
2023-05-19T02:53:55.106Z,15.82
2023-05-19T02:56:22.131Z,15.72
2023-05-19T02:58:48.921Z,15.72
2023-05-19T03:01:16.673Z,15.73
2023-05-19T03:03:43.746Z,15.74
2023-05-19T03:06:10.595Z,15.77
2023-05-19T03:08:38.761Z,15.80
2023-05-19T03:11:06.906Z,15.80
2023-05-19T03:13:33.744Z,15.81
2023-05-19T03:16:00.699Z,15.77
2023-05-19T03:18:27.821Z,15.78
2023-05-19T03:20:54.701Z,15.79
2023-05-19T03:23:22.524Z,15.75
2023-05-19T03:25:49.407Z,15.74
2023-05-19T03:28:17.233Z,15.78
2023-05-19T03:30:44.238Z,15.77
2023-05-19T03:33:14.815Z,15.73
2023-05-19T03:35:42.331Z,15.73
2023-05-19T03:38:09.131Z,15.74
2023-05-19T03:40:36.290Z,15.69
2023-05-19T03:43:08.727Z,15.69
2023-05-19T03:45:43.196Z,15.73
2023-05-19T03:48:30.059Z,15.74
2023-05-19T03:51:17.855Z,15.74
2023-05-19T03:53:47.059Z,15.75
2023-05-19T03:56:14.059Z,15.72
2023-05-19T03:58:44.828Z,15.73
2023-05-19T04:01:11.688Z,15.75
2023-05-19T04:03:38.497Z,15.73
2023-05-19T04:06:05.518Z,15.71
2023-05-19T04:08:32.374Z,15.66
2023-05-19T04:10:59.413Z,15.64
2023-05-19T04:13:26.273Z,15.61
2023-05-19T04:15:53.184Z,15.63
2023-05-19T04:18:19.984Z,15.59
2023-05-19T04:20:46.854Z,15.55
2023-05-19T04:23:13.590Z,15.54
2023-05-19T04:25:41.870Z,15.54
2023-05-19T04:28:08.631Z,15.50
2023-05-19T04:30:36.776Z,15.47
2023-05-19T04:33:04.845Z,15.43
2023-05-19T04:35:32.107Z,15.40
2023-05-19T04:38:01.691Z,15.37
2023-05-19T04:40:32.091Z,15.29
2023-05-19T04:42:59.154Z,15.31
2023-05-19T04:45:26.288Z,15.30
2023-05-19T04:47:58.273Z,15.30
2023-05-19T04:50:25.479Z,15.29
2023-05-19T04:52:52.844Z,15.28
2023-05-19T04:55:19.839Z,15.27
2023-05-19T04:57:48.372Z,15.28
2023-05-19T05:00:15.546Z,15.31
2023-05-19T05:03:05.113Z,15.30
2023-05-19T05:05:32.913Z,15.36
2023-05-19T05:08:00.293Z,15.42
2023-05-19T05:10:30.818Z,15.46
2023-05-19T05:12:58.068Z,15.50
2023-05-19T05:15:25.234Z,15.53
2023-05-19T05:17:52.615Z,15.53
2023-05-19T05:20:20.987Z,15.52
2023-05-19T05:22:48.271Z,15.56
2023-05-19T05:25:16.479Z,15.56
2023-05-19T05:27:43.950Z,15.55
2023-05-19T05:30:11.589Z,15.57
2023-05-19T05:32:38.828Z,15.59
2023-05-19T05:35:12.190Z,15.60
2023-05-19T05:37:39.923Z,15.65
2023-05-19T05:40:07.369Z,15.71
2023-05-19T05:42:35.164Z,15.72
2023-05-19T05:45:02.830Z,15.75
2023-05-19T05:47:30.030Z,15.75
2023-05-19T05:49:57.238Z,15.78
2023-05-19T05:52:30.230Z,15.79
2023-05-19T05:54:58.209Z,15.78
2023-05-19T05:57:25.140Z,15.82
2023-05-19T05:59:51.925Z,15.82
2023-05-19T06:02:19.043Z,15.81
2023-05-19T06:04:46.130Z,15.83
2023-05-19T06:07:12.904Z,15.80
2023-05-19T06:09:39.717Z,15.80
2023-05-19T06:12:08.803Z,15.76
2023-05-19T06:14:40.913Z,15.74
2023-05-19T06:17:42.945Z,15.65
2023-05-19T06:20:10.499Z,15.63
2023-05-19T06:22:37.399Z,15.72
2023-05-19T06:25:06.095Z,15.71
2023-05-19T06:27:34.878Z,15.66
2023-05-19T06:30:03.291Z,15.63
2023-05-19T06:32:35.798Z,15.67
2023-05-19T06:35:02.663Z,15.72
2023-05-19T06:37:30.150Z,15.76
2023-05-19T06:39:57.173Z,15.82
2023-05-19T06:42:25.484Z,15.88
2023-05-19T06:45:07.680Z,15.94
2023-05-19T06:47:34.635Z,15.97
2023-05-19T06:50:02.071Z,15.97
2023-05-19T06:52:32.938Z,16.00
2023-05-19T06:55:01.773Z,15.99
2023-05-19T06:57:30.472Z,16.00
2023-05-19T06:59:57.787Z,15.99
2023-05-19T07:02:26.178Z,16.02
2023-05-19T07:04:54.103Z,16.05
2023-05-19T07:07:22.634Z,16.03
2023-05-19T07:09:50.629Z,16.04
2023-05-19T07:12:18.153Z,16.06
2023-05-19T07:14:46.282Z,16.06
2023-05-19T07:17:13.680Z,15.98
2023-05-19T07:19:43.958Z,15.97
2023-05-19T07:22:10.943Z,15.94
2023-05-19T07:24:37.767Z,15.91
2023-05-19T07:27:05.401Z,15.94
2023-05-19T07:29:32.352Z,15.92
2023-05-19T07:31:59.267Z,15.92
2023-05-19T07:34:26.038Z,15.94
2023-05-19T07:36:52.950Z,15.97
2023-05-19T07:39:20.068Z,16.03
2023-05-19T07:41:52.713Z,16.06
2023-05-19T07:44:19.590Z,16.09
2023-05-19T07:46:46.593Z,16.14
2023-05-19T07:49:13.788Z,16.13
2023-05-19T07:51:41.908Z,16.12
2023-05-19T07:54:08.976Z,16.08
2023-05-19T07:56:36.022Z,16.12
2023-05-19T07:59:04.064Z,16.10
2023-05-19T08:01:32.050Z,16.07
2023-05-19T08:03:58.875Z,16.09
2023-05-19T08:06:25.829Z,16.10
2023-05-19T08:08:54.314Z,16.11
2023-05-19T08:11:21.652Z,16.11
2023-05-19T08:13:51.834Z,16.02
2023-05-19T08:16:19.005Z,16.01
2023-05-19T08:18:46.186Z,15.99
2023-05-19T08:21:13.044Z,15.97
2023-05-19T08:23:39.813Z,16.01
2023-05-19T08:26:06.591Z,16.02
2023-05-19T08:28:33.368Z,16.08
2023-05-19T08:31:00.218Z,16.13
2023-05-19T08:33:26.980Z,16.13
2023-05-19T08:35:55.438Z,16.12
2023-05-19T08:38:22.243Z,16.12
2023-05-19T08:40:49.085Z,16.13
2023-05-19T08:43:15.913Z,16.17
2023-05-19T08:45:46.511Z,16.19
2023-05-19T08:48:14.727Z,16.26
2023-05-19T08:50:47.456Z,16.25
2023-05-19T08:53:33.119Z,16.19
2023-05-19T08:56:11.185Z,16.27
2023-05-19T08:58:44.059Z,16.31
2023-05-19T09:01:14.871Z,16.22
2023-05-19T09:03:43.272Z,16.20
2023-05-19T09:06:13.901Z,16.26
2023-05-19T09:08:42.300Z,16.33
2023-05-19T09:11:10.321Z,16.33
2023-05-19T09:13:37.261Z,16.36
2023-05-19T09:16:04.536Z,16.36
2023-05-19T09:18:32.002Z,16.43
2023-05-19T09:21:00.706Z,16.39
2023-05-19T09:23:29.727Z,16.48
2023-05-19T09:25:57.406Z,16.49
2023-05-19T09:28:30.653Z,16.48
2023-05-19T09:31:02.305Z,16.42
2023-05-19T09:33:29.737Z,16.43
2023-05-19T09:35:57.131Z,16.45
2023-05-19T09:38:27.764Z,16.42
2023-05-19T09:40:57.805Z,16.45
2023-05-19T09:43:25.259Z,16.54
2023-05-19T09:46:08.451Z,16.45
2023-05-19T09:48:36.595Z,16.49
2023-05-19T09:51:05.381Z,16.49
2023-05-19T09:53:34.946Z,16.49
2023-05-19T09:56:03.683Z,16.54
2023-05-19T09:58:37.517Z,16.46
2023-05-19T10:01:05.284Z,16.46
2023-05-19T10:03:33.593Z,16.46
2023-05-19T10:06:05.526Z,16.49
2023-05-19T10:08:33.866Z,16.54
2023-05-19T10:11:01.110Z,16.57
2023-05-19T10:13:29.892Z,16.56
2023-05-19T10:15:59.718Z,16.57
2023-05-19T10:18:30.152Z,16.49
2023-05-19T10:20:57.984Z,16.45
2023-05-19T10:23:25.566Z,16.51
2023-05-19T10:25:56.657Z,16.54
2023-05-19T10:28:28.328Z,16.55
2023-05-19T10:31:00.544Z,16.53
2023-05-19T10:33:53.031Z,16.57
2023-05-19T10:36:39.356Z,16.63
2023-05-19T10:39:13.317Z,16.75
2023-05-19T10:42:11.381Z,16.74
2023-05-19T10:44:53.444Z,16.76
2023-05-19T10:47:25.279Z,16.78
2023-05-19T10:49:56.007Z,16.81
2023-05-19T10:52:26.096Z,16.78
2023-05-19T10:54:54.794Z,16.78
2023-05-19T10:57:28.523Z,16.77
2023-05-19T10:59:56.389Z,16.81
2023-05-19T11:02:44.235Z,16.81
2023-05-19T11:05:18.214Z,16.85
2023-05-19T11:07:57.050Z,16.84
2023-05-19T11:10:25.001Z,16.85
2023-05-19T11:12:52.386Z,16.80
2023-05-19T11:15:26.055Z,16.76
2023-05-19T11:17:53.460Z,16.77
2023-05-19T11:20:23.707Z,16.79
2023-05-19T11:23:14.704Z,16.88
2023-05-19T11:25:49.351Z,16.94
2023-05-19T11:28:19.930Z,17.04
2023-05-19T11:30:52.446Z,16.94
2023-05-19T11:33:27.300Z,16.91
2023-05-19T11:35:59.711Z,16.84
2023-05-19T11:38:28.640Z,16.87
2023-05-19T11:40:56.691Z,16.85
2023-05-19T11:43:27.047Z,16.91
2023-05-19T11:45:55.132Z,16.91
2023-05-19T11:48:22.673Z,16.91
2023-05-19T11:50:51.048Z,16.94
2023-05-19T11:53:19.624Z,16.89
2023-05-19T11:55:47.952Z,16.90
2023-05-19T11:58:15.429Z,16.97
2023-05-19T12:00:45.996Z,17.00
2023-05-19T12:03:13.380Z,17.07
2023-05-19T12:05:48.924Z,17.10
2023-05-19T12:08:19.094Z,17.12
2023-05-19T12:10:50.783Z,17.11
2023-05-19T12:13:17.745Z,17.11
2023-05-19T12:15:44.658Z,17.14
2023-05-19T12:18:11.774Z,17.15
2023-05-19T12:20:39.408Z,17.13
2023-05-19T12:23:06.671Z,17.13
2023-05-19T12:25:34.231Z,17.14
2023-05-19T12:28:05.116Z,17.12
2023-05-19T12:30:33.621Z,17.08
2023-05-19T12:33:02.845Z,17.10
2023-05-19T12:35:32.390Z,17.08
2023-05-19T12:38:08.925Z,17.06
2023-05-19T12:40:37.563Z,17.04
2023-05-19T12:43:05.745Z,17.00
2023-05-19T12:45:37.339Z,16.96
2023-05-19T12:48:16.281Z,16.92
2023-05-19T12:50:45.261Z,16.88
2023-05-19T12:53:13.079Z,16.91
2023-05-19T12:55:44.731Z,16.88
2023-05-19T12:58:13.225Z,16.85
2023-05-19T13:00:43.759Z,16.90
2023-05-19T13:03:17.630Z,16.87
2023-05-19T13:05:49.578Z,16.81
2023-05-19T13:08:21.770Z,16.79
2023-05-19T13:10:49.860Z,16.83
2023-05-19T13:13:17.054Z,16.81
2023-05-19T13:15:46.050Z,16.70
2023-05-19T13:18:13.860Z,16.65
2023-05-19T13:20:43.651Z,16.63
2023-05-19T13:23:11.658Z,16.66
2023-05-19T13:25:38.827Z,16.65
2023-05-19T13:28:06.099Z,16.61
2023-05-19T13:30:35.030Z,16.66
2023-05-19T13:33:02.679Z,16.71
2023-05-19T13:35:29.980Z,16.70
2023-05-19T13:37:56.849Z,16.78
2023-05-19T13:40:24.256Z,16.81
2023-05-19T13:42:51.965Z,16.85
2023-05-19T13:45:18.722Z,16.84
2023-05-19T13:47:45.715Z,16.89
2023-05-19T13:50:12.830Z,16.94
2023-05-19T13:52:39.752Z,16.95
2023-05-19T13:55:07.733Z,16.95
2023-05-19T13:57:35.433Z,16.90
2023-05-19T14:00:03.932Z,16.84
2023-05-19T14:02:40.826Z,16.86
2023-05-19T14:05:08.689Z,16.83
2023-05-19T14:07:36.036Z,16.86
2023-05-19T14:10:05.668Z,16.86
2023-05-19T14:12:41.607Z,16.79
2023-05-19T14:15:19.723Z,16.79
2023-05-19T14:17:47.229Z,16.81
2023-05-19T14:20:14.351Z,16.84
2023-05-19T14:22:41.207Z,16.83
2023-05-19T14:25:08.457Z,16.87
2023-05-19T14:27:35.376Z,16.86
2023-05-19T14:30:02.392Z,16.85
2023-05-19T14:32:30.522Z,16.83
2023-05-19T14:34:57.582Z,16.84
2023-05-19T14:37:27.152Z,16.85
2023-05-19T14:39:53.993Z,16.93
2023-05-19T14:42:20.770Z,16.98
2023-05-19T14:44:47.749Z,17.01
2023-05-19T14:47:14.700Z,17.11
2023-05-19T14:49:41.730Z,17.12
2023-05-19T14:52:08.565Z,17.03
2023-05-19T14:54:35.424Z,17.09
2023-05-19T14:57:03.051Z,17.16
2023-05-19T14:59:29.922Z,17.07
2023-05-19T15:01:56.698Z,17.07
2023-05-19T15:04:23.649Z,17.08
2023-05-19T15:07:02.046Z,17.10
2023-05-19T15:09:36.491Z,17.10
2023-05-19T15:12:03.522Z,17.15
2023-05-19T15:14:31.285Z,17.10
2023-05-19T15:16:58.787Z,17.06
2023-05-19T15:19:26.170Z,17.03
2023-05-19T15:21:53.195Z,17.03
2023-05-19T15:24:20.067Z,17.03
2023-05-19T15:26:47.430Z,17.02
2023-05-19T15:29:14.514Z,17.02
2023-05-19T15:31:41.646Z,17.01
2023-05-19T15:34:08.856Z,17.06
2023-05-19T15:36:35.646Z,17.07
2023-05-19T15:39:03.896Z,17.07
2023-05-19T15:41:30.779Z,17.09
2023-05-19T15:44:00.215Z,17.05
2023-05-19T15:46:27.407Z,17.09
2023-05-19T15:48:54.349Z,17.07
2023-05-19T15:51:22.790Z,17.03
2023-05-19T15:53:54.384Z,17.00
2023-05-19T15:56:26.872Z,16.99
2023-05-19T15:58:53.856Z,17.01
2023-05-19T16:01:21.724Z,17.02
2023-05-19T16:03:48.782Z,17.03
2023-05-19T16:06:15.973Z,17.04
2023-05-19T16:08:42.927Z,17.07
2023-05-19T16:11:09.739Z,17.06
2023-05-19T16:13:36.613Z,17.04
2023-05-19T16:16:03.805Z,17.02
2023-05-19T16:18:30.876Z,17.02
2023-05-19T16:20:57.686Z,17.03
2023-05-19T16:23:25.302Z,17.02
2023-05-19T16:25:52.405Z,16.99
2023-05-19T16:28:19.593Z,16.97
2023-05-19T16:30:46.666Z,16.92
2023-05-19T16:33:13.681Z,16.89
2023-05-19T16:35:40.678Z,16.88
2023-05-19T16:38:07.688Z,16.89
2023-05-19T16:40:34.909Z,16.91
2023-05-19T16:43:02.231Z,16.95
2023-05-19T16:45:29.027Z,16.96
2023-05-19T16:47:56.065Z,16.93
2023-05-19T16:50:22.947Z,16.92
2023-05-19T16:52:49.889Z,16.93
2023-05-19T16:55:19.820Z,16.90
2023-05-19T16:57:47.169Z,16.90
2023-05-19T17:00:14.914Z,16.96
2023-05-19T17:02:42.113Z,16.96
2023-05-19T17:05:09.532Z,16.99
2023-05-19T17:07:36.508Z,17.01
2023-05-19T17:10:04.563Z,17.01
2023-05-19T17:12:31.457Z,17.01
2023-05-19T17:14:58.192Z,17.00
2023-05-19T17:17:25.199Z,17.01
2023-05-19T17:19:52.152Z,16.99
2023-05-19T17:22:19.366Z,16.96
2023-05-19T17:24:46.397Z,16.90
2023-05-19T17:27:13.372Z,16.87
2023-05-19T17:29:40.230Z,16.86
2023-05-19T17:32:07.372Z,16.87
2023-05-19T17:34:35.617Z,16.83
2023-05-19T17:37:02.518Z,16.82
2023-05-19T17:39:29.309Z,16.80
2023-05-19T17:41:56.397Z,16.79
2023-05-19T17:44:23.120Z,16.77
2023-05-19T17:46:50.005Z,16.72
2023-05-19T17:49:16.909Z,16.66
2023-05-19T17:51:44.069Z,16.57
2023-05-19T17:54:11.508Z,16.43
2023-05-19T17:56:42.392Z,16.41
2023-05-19T17:59:09.814Z,16.36
2023-05-19T18:01:36.981Z,16.31
2023-05-19T18:04:04.446Z,16.31
2023-05-19T18:06:32.371Z,16.30
2023-05-19T18:09:01.390Z,16.37
2023-05-19T18:11:28.530Z,16.39
2023-05-19T18:13:55.677Z,16.40
2023-05-19T18:16:26.002Z,16.44
2023-05-19T18:18:52.909Z,16.42
2023-05-19T18:21:19.850Z,16.42
2023-05-19T18:23:48.127Z,16.34
2023-05-19T18:26:15.361Z,16.32
2023-05-19T18:28:44.924Z,16.33
2023-05-19T18:31:17.497Z,16.23
2023-05-19T18:33:45.418Z,16.13
2023-05-19T18:36:13.534Z,16.04
2023-05-19T18:38:41.370Z,15.91
2023-05-19T18:41:09.891Z,15.93
2023-05-19T18:43:36.774Z,15.88
2023-05-19T18:46:04.561Z,15.97
2023-05-19T18:48:33.615Z,15.98
2023-05-19T18:51:01.350Z,16.03
2023-05-19T18:53:29.003Z,16.07
2023-05-19T18:55:56.108Z,15.95
2023-05-19T18:58:26.087Z,15.84
2023-05-19T19:00:56.236Z,15.85
2023-05-19T19:03:23.222Z,15.90
2023-05-19T19:05:56.999Z,15.98
2023-05-19T19:08:24.466Z,16.04
2023-05-19T19:10:52.165Z,16.10
2023-05-19T19:13:19.288Z,16.05
2023-05-19T19:15:46.726Z,16.07
2023-05-19T19:18:13.971Z,16.11
2023-05-19T19:20:41.136Z,16.02
2023-05-19T19:23:08.248Z,15.97
2023-05-19T19:25:35.843Z,15.94
2023-05-19T19:28:03.342Z,15.96
2023-05-19T19:30:30.330Z,16.00
2023-05-19T19:32:57.407Z,15.98
2023-05-19T19:35:24.950Z,15.94
2023-05-19T19:37:51.852Z,15.87
2023-05-19T19:40:18.959Z,15.74
2023-05-19T19:42:46.131Z,15.72
2023-05-19T19:45:15.580Z,15.77
2023-05-19T19:47:42.809Z,15.72
2023-05-19T19:50:10.786Z,15.70
2023-05-19T19:52:37.788Z,15.71
2023-05-19T19:55:09.247Z,15.76
2023-05-19T19:57:36.940Z,15.80
2023-05-19T20:00:08.341Z,15.86
2023-05-19T20:02:40.992Z,15.90
2023-05-19T20:05:12.605Z,15.90
2023-05-19T20:07:39.388Z,15.93
2023-05-19T20:10:06.748Z,15.95
2023-05-19T20:12:33.652Z,15.95
2023-05-19T20:15:00.549Z,15.97
2023-05-19T20:17:27.355Z,15.97
2023-05-19T20:19:54.241Z,15.95
2023-05-19T20:22:21.173Z,15.97
2023-05-19T20:24:48.942Z,15.92
2023-05-19T20:27:15.712Z,15.92
2023-05-19T20:29:42.578Z,15.88
2023-05-19T20:32:09.702Z,15.87
2023-05-19T20:34:36.667Z,15.78
2023-05-19T20:37:03.612Z,15.74
2023-05-19T20:39:31.459Z,15.72
2023-05-19T20:41:58.346Z,15.70
2023-05-19T20:44:25.174Z,15.75
2023-05-19T20:46:52.161Z,15.75
2023-05-19T20:49:19.387Z,15.81
2023-05-19T20:51:46.305Z,15.84
2023-05-19T20:54:13.256Z,15.86
2023-05-19T20:56:40.071Z,15.86
2023-05-19T20:59:06.900Z,15.81
2023-05-19T21:01:33.896Z,15.78
2023-05-19T21:04:01.037Z,15.78
2023-05-19T21:06:27.917Z,15.77
2023-05-19T21:08:55.096Z,15.78
2023-05-19T21:11:22.024Z,15.72
2023-05-19T21:13:50.190Z,15.66
2023-05-19T21:16:17.032Z,15.59
2023-05-19T21:18:44.151Z,15.45
2023-05-19T21:21:10.990Z,15.45
2023-05-19T21:23:37.717Z,15.48
2023-05-19T21:26:07.508Z,15.41
2023-05-19T21:28:34.507Z,15.36
2023-05-19T21:31:01.456Z,15.31
2023-05-19T21:33:28.307Z,15.34
2023-05-19T21:35:55.177Z,15.37
2023-05-19T21:38:24.328Z,15.41
2023-05-19T21:40:52.107Z,15.46
2023-05-19T21:43:22.291Z,15.50
2023-05-19T21:45:49.153Z,15.57
2023-05-19T21:48:16.175Z,15.59
2023-05-19T21:50:45.343Z,15.58
2023-05-19T21:53:12.103Z,15.55
2023-05-19T21:55:39.440Z,15.55
2023-05-19T21:58:06.319Z,15.58
2023-05-19T22:00:33.534Z,15.61
2023-05-19T22:03:00.790Z,15.67
2023-05-19T22:05:30.398Z,15.69
2023-05-19T22:07:57.541Z,15.66
2023-05-19T22:10:24.497Z,15.69
2023-05-19T22:12:51.368Z,15.60
2023-05-19T22:15:18.256Z,15.41
2023-05-19T22:17:45.132Z,15.40
2023-05-19T22:20:12.844Z,15.45
2023-05-19T22:22:39.753Z,15.49
2023-05-19T22:25:07.123Z,15.51
2023-05-19T22:27:33.985Z,15.55
2023-05-19T22:30:00.745Z,15.53
2023-05-19T22:32:35.452Z,15.55
2023-05-19T22:35:02.279Z,15.60
2023-05-19T22:37:29.081Z,15.60
2023-05-19T22:39:55.993Z,15.60
2023-05-19T22:42:22.780Z,15.45
2023-05-19T22:44:49.658Z,15.43
2023-05-19T22:47:16.537Z,15.45
2023-05-19T22:49:43.511Z,15.49
2023-05-19T22:52:11.208Z,15.53
2023-05-19T22:54:38.259Z,15.53
2023-05-19T22:57:08.383Z,15.58
2023-05-19T22:59:35.714Z,15.60
2023-05-19T23:02:02.558Z,15.64
2023-05-19T23:04:29.575Z,15.61
2023-05-19T23:06:56.517Z,15.63
2023-05-19T23:09:23.487Z,15.64
2023-05-19T23:11:50.357Z,15.63
2023-05-19T23:14:18.564Z,15.65
2023-05-19T23:16:45.347Z,15.65
2023-05-19T23:19:12.445Z,15.66
2023-05-19T23:21:39.443Z,15.67
2023-05-19T23:24:06.830Z,15.65
2023-05-19T23:26:33.709Z,15.63
2023-05-19T23:29:00.606Z,15.64
2023-05-19T23:31:27.456Z,15.65
2023-05-19T23:33:54.422Z,15.65
2023-05-19T23:36:21.286Z,15.63
2023-05-19T23:38:48.024Z,15.58
2023-05-19T23:41:14.900Z,15.51
2023-05-19T23:43:41.850Z,15.51
2023-05-19T23:46:08.800Z,15.47
2023-05-19T23:48:36.722Z,15.50
2023-05-19T23:51:03.767Z,15.49
2023-05-19T23:53:30.553Z,15.51
2023-05-19T23:55:58.721Z,15.48
2023-05-19T23:58:25.803Z,15.50
